EndleSS Venture — ZJL9179 — position and weather

sailwx.info

Track history (hours):
 
Tides and Currents Weather Stations Pressure Air Temp Water Temp Dewpoint Dewpoint Depression Visibility Wind Speed Wind Dir Waves Ship Positions

EndleSS Venture

Last reported at 2018-Feb-18 21:51 UTC. Time now 2018-Feb-25 11:59 UTC.
Position N 26°15' W 080°05'.

Type: Pleasure craft. MMSI: 378112195.

Date/timePositionNaut miles runAvg speedWind from/ knotsBaromVisibWave heightAir tempDewpointWater temp
2018-Feb-18 21:51N 26°15' W 080°05'2 4.3
2018-Feb-18 21:29N 26°14' W 080°06'5 3.4
2018-Feb-18 19:57N 26°19' W 080°04'3 2.2
2018-Feb-18 18:37N 26°22' W 080°04'  
2018-Feb-15 22:24N 26°16' W 080°05'2 3.9
2018-Feb-15 21:55N 26°14' W 080°06'3 5.1
2018-Feb-15 21:22N 26°11' W 080°06'3 7.3
2018-Feb-15 20:59N 26°08' W 080°07'1 2.3
2018-Feb-15 20:29N 26°07' W 080°07'2 4.0
2018-Feb-15 19:59N 26°07' W 080°09'2 5.1
2018-Feb-15 19:30N 26°05' W 080°11'0 0.3
2018-Feb-15 18:55N 26°05' W 080°11'0 0.0
2018-Feb-15 18:30N 26°05' W 080°11'0 0.0
2018-Feb-15 17:48N 26°05' W 080°11'0 0.0
2018-Feb-15 17:30N 26°05' W 080°11'2 3.7
2018-Feb-15 16:57N 26°03' W 080°11'2 4.5
2018-Feb-15 16:30N 26°05' W 080°11'0 0.0
2018-Feb-15 15:58N 26°05' W 080°11'0 0.0
2018-Feb-15 15:30N 26°05' W 080°11'0 0.0
2018-Feb-15 14:59N 26°05' W 080°11'0 0.0
2018-Feb-15 14:28N 26°05' W 080°11'0 0.0
2018-Feb-15 13:59N 26°05' W 080°11'0 0.0
2018-Feb-15 13:25N 26°05' W 080°11'0 0.0
2018-Feb-15 12:56N 26°05' W 080°11'0 0.0
2018-Feb-15 12:30N 26°05' W 080°11'0 0.0
2018-Feb-15 11:52N 26°05' W 080°11'0 0.0
2018-Feb-15 11:30N 26°05' W 080°11'0 0.0
2018-Feb-15 10:55N 26°05' W 080°11'0 0.0
2018-Feb-15 10:30N 26°05' W 080°11'0 0.0
2018-Feb-15 09:56N 26°05' W 080°11'0 0.0
2018-Feb-15 09:27N 26°05' W 080°11'0 0.0
2018-Feb-15 08:50N 26°05' W 080°11'0 0.0
2018-Feb-15 08:28N 26°05' W 080°11'0 0.0
2018-Feb-15 07:55N 26°05' W 080°11'0 0.0
2018-Feb-15 07:28N 26°05' W 080°11'0 0.0
2018-Feb-15 06:59N 26°05' W 080°11'0 0.0
2018-Feb-15 06:29N 26°05' W 080°11'0 0.0
2018-Feb-15 05:59N 26°05' W 080°11'0 0.0
2018-Feb-15 05:28N 26°05' W 080°11'0 0.0
2018-Feb-15 04:48N 26°05' W 080°11'0 0.0
2018-Feb-15 04:30N 26°05' W 080°11'0 0.0
2018-Feb-15 03:56N 26°05' W 080°11'0 0.0
2018-Feb-15 03:24N 26°05' W 080°11'0 0.0
2018-Feb-15 02:55N 26°05' W 080°11'0 0.0
2018-Feb-15 02:29N 26°05' W 080°11'0 0.0
2018-Feb-15 01:50N 26°05' W 080°11'0 0.0
2018-Feb-15 01:25N 26°05' W 080°11'0 0.0
2018-Feb-15 01:00N 26°05' W 080°11'0 0.0
2018-Feb-15 00:19N 26°05' W 080°11'0 0.0
2018-Feb-14 23:59N 26°05' W 080°11'0 0.0
2018-Feb-14 23:26N 26°05' W 080°11'0 0.0
2018-Feb-14 22:49N 26°05' W 080°11'0 0.0
2018-Feb-14 22:16N 26°05' W 080°11'0 0.0
2018-Feb-14 21:57N 26°05' W 080°11'0 0.0
2018-Feb-14 21:29N 26°05' W 080°11'0 0.0
2018-Feb-14 20:57N 26°05' W 080°11'0 0.0
2018-Feb-14 20:28N 26°05' W 080°11'0 0.0
2018-Feb-14 19:55N 26°05' W 080°11'0 0.0
2018-Feb-14 19:24N 26°05' W 080°11'0 0.0
2018-Feb-14 19:00N 26°05' W 080°11'0 0.0
2018-Feb-14 16:27N 26°05' W 080°11'0 0.0
2018-Feb-14 15:46N 26°05' W 080°11'0 0.0
2018-Feb-14 15:25N 26°05' W 080°11'0 0.0
2018-Feb-14 15:00N 26°05' W 080°11'0 0.0
2018-Feb-14 14:28N 26°05' W 080°11'0 0.0
2018-Feb-14 13:58N 26°05' W 080°11'0 0.0
2018-Feb-14 13:24N 26°05' W 080°11'0 0.0
2018-Feb-14 12:58N 26°05' W 080°11'0 0.0
2018-Feb-14 12:28N 26°05' W 080°11'0 0.0
2018-Feb-14 11:54N 26°05' W 080°11'0 0.0
2018-Feb-14 11:28N 26°05' W 080°11'0 0.0
2018-Feb-14 10:54N 26°05' W 080°11'0 0.0
2018-Feb-14 10:30N 26°05' W 080°11'0 0.0
2018-Feb-14 09:53N 26°05' W 080°11'0 0.0
2018-Feb-14 09:26N 26°05' W 080°11'0 0.0
2018-Feb-14 08:56N 26°05' W 080°11'0 0.0
2018-Feb-14 08:30N 26°05' W 080°11'0 0.0
2018-Feb-14 08:00N 26°05' W 080°11'0 0.0
2018-Feb-14 07:30N 26°05' W 080°11'0 0.0
2018-Feb-14 07:00N 26°05' W 080°11'0 0.0
2018-Feb-14 06:26N 26°05' W 080°11'0 0.0
2018-Feb-14 05:56N 26°05' W 080°11'0 0.0
2018-Feb-14 05:30N 26°05' W 080°11'0 0.0
2018-Feb-14 04:58N 26°05' W 080°11'0 0.0
2018-Feb-14 04:18N 26°05' W 080°11'0 0.0
2018-Feb-14 03:59N 26°05' W 080°11'0 0.0
2018-Feb-14 03:27N 26°05' W 080°11'0 0.0
2018-Feb-14 03:00N 26°05' W 080°11'0 0.0
2018-Feb-14 02:30N 26°05' W 080°11'0 0.0
2018-Feb-14 01:48N 26°05' W 080°11'0 0.0
2018-Feb-14 01:23N 26°05' W 080°11'0 0.0
2018-Feb-14 00:58N 26°05' W 080°11'0 0.0
2018-Feb-14 00:28N 26°05' W 080°11'0 0.0
2018-Feb-14 00:00N 26°05' W 080°11'0 0.0
2018-Feb-13 23:26N 26°05' W 080°11'0 0.0
2018-Feb-13 22:59N 26°05' W 080°11'0 0.0
2018-Feb-13 22:29N 26°05' W 080°11'0 0.0
2018-Feb-13 21:58N 26°05' W 080°11'0 0.0
2018-Feb-13 21:28N 26°05' W 080°11'0 0.0
2018-Feb-13 20:58N 26°05' W 080°11'0 0.0
2018-Feb-13 20:19N 26°05' W 080°11'0 0.0
2018-Feb-13 19:57N 26°05' W 080°11'0 0.0
2018-Feb-13 19:26N 26°05' W 080°11'0 0.0
2018-Feb-13 19:00N 26°05' W 080°11'0 0.0
2018-Feb-13 18:30N 26°05' W 080°11'0 0.0
2018-Feb-13 17:52N 26°05' W 080°11'0 0.0
2018-Feb-13 17:28N 26°05' W 080°11'0 0.0
2018-Feb-13 16:57N 26°05' W 080°11'0 0.0
2018-Feb-13 16:30N 26°05' W 080°11'0 0.0
2018-Feb-13 15:56N 26°05' W 080°11'0 0.0
2018-Feb-13 15:29N 26°05' W 080°11'0 0.0
2018-Feb-13 15:00N 26°05' W 080°11'0 0.0
2018-Feb-13 14:25N 26°05' W 080°11'0 0.0
2018-Feb-13 13:53N 26°05' W 080°11'0 0.0
2018-Feb-13 13:27N 26°05' W 080°11'0 0.0
2018-Feb-13 13:00N 26°05' W 080°11'0 0.0
2018-Feb-13 12:29N 26°05' W 080°11'0 0.0
2018-Feb-13 11:54N 26°05' W 080°11'0 0.0
2018-Feb-13 11:19N 26°05' W 080°11'0 0.0
2018-Feb-13 10:52N 26°05' W 080°11'0 0.0
2018-Feb-13 10:23N 26°05' W 080°11'0 0.0
2018-Feb-13 09:59N 26°05' W 080°11'0 0.0
2018-Feb-13 09:26N 26°05' W 080°11'0 0.0
2018-Feb-13 08:53N 26°05' W 080°11'0 0.0
2018-Feb-13 08:11N 26°05' W 080°11'0 0.0
2018-Feb-13 07:56N 26°05' W 080°11'0 0.0
2018-Feb-13 07:30N 26°05' W 080°11'0 0.0
2018-Feb-13 07:00N 26°05' W 080°11'0 0.0
2018-Feb-13 06:30N 26°05' W 080°11'0 0.0
2018-Feb-13 06:00N 26°05' W 080°11'0 0.0
2018-Feb-13 05:30N 26°05' W 080°11'0 0.0
2018-Feb-13 04:49N 26°05' W 080°11'0 0.0
2018-Feb-13 04:29N 26°05' W 080°11'0 0.0
2018-Feb-13 03:52N 26°05' W 080°11'0 0.0
2018-Feb-13 03:28N 26°05' W 080°11'0 0.0
2018-Feb-13 03:00N 26°05' W 080°11'0 0.0
2018-Feb-13 02:30N 26°05' W 080°11'0 0.0
2018-Feb-13 02:00N 26°05' W 080°11'0 0.0
2018-Feb-13 01:29N 26°05' W 080°11'0 0.0
2018-Feb-13 00:54N 26°05' W 080°11'0 0.0
2018-Feb-13 00:25N 26°05' W 080°11'0 0.0
2018-Feb-12 23:59N 26°05' W 080°11'0 0.0
2018-Feb-12 23:20N 26°05' W 080°11'0 0.0
2018-Feb-12 22:55N 26°05' W 080°11'0 0.0
2018-Feb-12 22:25N 26°05' W 080°11'0 0.0
2018-Feb-12 22:00N 26°05' W 080°11'0 0.0
2018-Feb-12 21:30N 26°05' W 080°11'0 0.0
2018-Feb-12 20:59N 26°05' W 080°11'0 0.0
2018-Feb-12 20:26N 26°05' W 080°11'0 0.0
2018-Feb-12 19:59N 26°05' W 080°11'0 0.0
2018-Feb-12 19:26N 26°05' W 080°11'1 2.5
2018-Feb-12 18:56N 26°06' W 080°10'2 3.2
2018-Feb-12 18:23N 26°07' W 080°08'2 4.6
2018-Feb-12 18:00N 26°06' W 080°07'0 0.3
2018-Feb-12 17:30N 26°06' W 080°07'2 4.2
2018-Feb-12 16:58N 26°07' W 080°09'1 2.2
2018-Feb-12 16:30N 26°06' W 080°10'2 3.3
2018-Feb-12 15:54N 26°05' W 080°11'0 0.1
2018-Feb-12 15:30N 26°05' W 080°11'0 0.0
2018-Feb-12 15:00N 26°05' W 080°11'0 0.0
2018-Feb-12 14:30N 26°05' W 080°11'0 0.5
2018-Feb-12 13:59N 26°05' W 080°11'0 0.2
2018-Feb-12 13:25N 26°05' W 080°11'0 0.0
2018-Feb-12 12:55N 26°05' W 080°11'0 0.0
2018-Feb-12 12:25N 26°05' W 080°11'0 0.0
2018-Feb-12 12:00N 26°05' W 080°11'0 0.0
2018-Feb-12 11:25N 26°05' W 080°11'0 0.0
2018-Feb-12 10:59N 26°05' W 080°11'0 0.0
2018-Feb-12 10:28N 26°05' W 080°11'0 0.0
2018-Feb-12 09:50N 26°05' W 080°11'0 0.0
2018-Feb-12 09:20N 26°05' W 080°11'0 0.0
2018-Feb-12 08:50N 26°05' W 080°11'0 0.0
2018-Feb-12 08:20N 26°05' W 080°11'0 0.0
2018-Feb-12 07:53N 26°05' W 080°11'0 0.0
2018-Feb-12 07:19N 26°05' W 080°11'0 0.0
2018-Feb-12 06:49N 26°05' W 080°11'0 0.0
2018-Feb-12 06:22N 26°05' W 080°11'0 0.0
2018-Feb-12 05:52N 26°05' W 080°11'0 0.0
2018-Feb-12 05:30N 26°05' W 080°11'0 0.0
2018-Feb-12 04:59N 26°05' W 080°11'0 0.0
2018-Feb-12 04:24N 26°05' W 080°11'0 0.0
2018-Feb-12 03:59N 26°05' W 080°11'0 0.0
2018-Feb-12 03:25N 26°05' W 080°11'0 0.0
2018-Feb-12 02:58N 26°05' W 080°11'0 0.0
2018-Feb-12 02:28N 26°05' W 080°11'0 0.0
2018-Feb-12 01:58N 26°05' W 080°11'0 0.0
2018-Feb-12 01:30N 26°05' W 080°11'0 0.0
2018-Feb-12 00:58N 26°05' W 080°11'0 0.0
2018-Feb-12 00:28N 26°05' W 080°11'0 0.0
2018-Feb-11 23:58N 26°05' W 080°11'0 0.0
2018-Feb-11 23:28N 26°05' W 080°11'0 0.0
2018-Feb-11 22:57N 26°05' W 080°11'0 0.0
2018-Feb-11 22:11N 26°05' W 080°11'0 0.0
2018-Feb-11 21:56N 26°05' W 080°11'0 0.0
2018-Feb-11 21:31N 26°05' W 080°11'0 0.0
2018-Feb-11 20:54N 26°05' W 080°11'0 0.0
2018-Feb-11 20:24N 26°05' W 080°11'0 0.0
2018-Feb-11 19:57N 26°05' W 080°11'0 0.0
2018-Feb-11 19:14N 26°05' W 080°11'0 0.0
2018-Feb-11 18:54N 26°05' W 080°11'0 0.0
2018-Feb-11 18:24N 26°05' W 080°11'0 0.0
2018-Feb-11 17:59N 26°05' W 080°11'0 0.0
2018-Feb-11 17:31N 26°05' W 080°11'0 0.0
2018-Feb-11 16:58N 26°05' W 080°11'0 0.0
2018-Feb-11 16:29N 26°05' W 080°11'0 0.0
2018-Feb-11 15:59N 26°05' W 080°11'0 0.0
2018-Feb-11 15:29N 26°05' W 080°11'0 0.0
2018-Feb-11 14:53N 26°05' W 080°11'0 0.0
2018-Feb-11 14:16N 26°05' W 080°11'0 0.0
2018-Feb-11 14:00N 26°05' W 080°11'0 0.0
2018-Feb-11 13:29N 26°05' W 080°11'0 0.0
2018-Feb-11 13:01N 26°05' W 080°11'0 0.0
2018-Feb-11 12:25N 26°05' W 080°11'0 0.0
2018-Feb-11 11:59N 26°05' W 080°11'0 0.0
2018-Feb-11 11:28N 26°05' W 080°11'0 0.0
2018-Feb-11 10:59N 26°05' W 080°11'0 0.0
2018-Feb-11 10:25N 26°05' W 080°11'0 0.0
2018-Feb-11 10:00N 26°05' W 080°11'0 0.0
2018-Feb-11 09:30N 26°05' W 080°11'0 0.0
2018-Feb-11 09:00N 26°05' W 080°11'0 0.0
2018-Feb-11 08:30N 26°05' W 080°11'0 0.0
2018-Feb-11 07:51N 26°05' W 080°11'0 0.0
2018-Feb-11 07:26N 26°05' W 080°11'0 0.0
2018-Feb-11 06:56N 26°05' W 080°11'0 0.0
2018-Feb-11 06:26N 26°05' W 080°11'0 0.0
2018-Feb-11 05:56N 26°05' W 080°11'0 0.0
2018-Feb-11 05:30N 26°05' W 080°11'0 0.0
2018-Feb-11 04:59N 26°05' W 080°11'0 0.0
2018-Feb-11 04:28N 26°05' W 080°11'0 0.0
2018-Feb-11 03:58N 26°05' W 080°11'0 0.0
2018-Feb-11 03:30N 26°05' W 080°11'0 0.0
2018-Feb-11 02:59N 26°05' W 080°11'0 0.0
2018-Feb-11 02:24N 26°05' W 080°11'0 0.0
2018-Feb-11 01:51N 26°05' W 080°11'0 0.0
2018-Feb-11 01:17N 26°05' W 080°11'0 0.0
2018-Feb-11 01:00N 26°05' W 080°11'0 0.0
2018-Feb-11 00:27N 26°05' W 080°11'0 0.0
2018-Feb-10 23:56N 26°05' W 080°11'0 0.0
2018-Feb-10 23:22N 26°05' W 080°11'0 0.0
2018-Feb-10 22:51N 26°05' W 080°11'0 0.0
2018-Feb-10 22:21N 26°05' W 080°11'0 0.0
2018-Feb-10 22:00N 26°05' W 080°11'0 0.0
2018-Feb-10 21:30N 26°05' W 080°11'0 0.0
2018-Feb-10 20:59N 26°05' W 080°11'0 0.0
2018-Feb-10 20:29N 26°05' W 080°11'0 0.0
2018-Feb-10 19:58N 26°05' W 080°11'0 0.0
2018-Feb-10 19:29N 26°05' W 080°11'0 0.0
2018-Feb-10 18:58N 26°05' W 080°11'0 0.0
2018-Feb-10 18:29N 26°05' W 080°11'0 0.0
2018-Feb-10 17:56N 26°05' W 080°11'0 0.0
2018-Feb-10 17:29N 26°05' W 080°11'0 0.0
2018-Feb-10 16:59N 26°05' W 080°11'0 0.0
2018-Feb-10 16:26N 26°05' W 080°11'0 0.0
2018-Feb-10 15:59N 26°05' W 080°11'0 0.0
2018-Feb-10 15:25N 26°05' W 080°11'0 0.0
2018-Feb-10 14:52N 26°05' W 080°11'0 0.0
2018-Feb-10 14:30N 26°05' W 080°11'0 0.0
2018-Feb-10 13:59N 26°05' W 080°11'0 0.0
2018-Feb-10 13:29N 26°05' W 080°11'0 0.0
2018-Feb-10 12:59N 26°05' W 080°11'0 0.0
2018-Feb-10 12:29N 26°05' W 080°11'0 0.0
2018-Feb-10 11:58N 26°05' W 080°11'0 0.0
2018-Feb-10 11:30N 26°05' W 080°11'0 0.0
2018-Feb-10 11:00N 26°05' W 080°11'0 0.0
2018-Feb-10 10:30N 26°05' W 080°11'0 0.0
2018-Feb-10 09:52N 26°05' W 080°11'0 0.0
2018-Feb-10 09:25N 26°05' W 080°11'0 0.0
2018-Feb-10 08:58N 26°05' W 080°11'0 0.0
2018-Feb-10 08:28N 26°05' W 080°11'0 0.0
2018-Feb-10 07:55N 26°05' W 080°11'0 0.0
2018-Feb-10 07:30N 26°05' W 080°11'0 0.0
2018-Feb-10 06:36N 26°05' W 080°11'0 0.0
2018-Feb-10 06:21N 26°05' W 080°11'0 0.0
2018-Feb-10 05:54N 26°05' W 080°11'0 0.0
2018-Feb-10 05:30N 26°05' W 080°11'0 0.0
2018-Feb-10 04:59N 26°05' W 080°11'0 0.0
2018-Feb-10 04:30N 26°05' W 080°11'0 0.0
2018-Feb-10 03:53N 26°05' W 080°11'0 0.0
2018-Feb-10 03:30N 26°05' W 080°11'0 0.0
2018-Feb-10 02:58N 26°05' W 080°11'0 0.0
2018-Feb-10 02:28N 26°05' W 080°11'0 0.0
2018-Feb-10 01:50N 26°05' W 080°11'0 0.0
2018-Feb-10 01:17N 26°05' W 080°11'0 0.0
2018-Feb-10 00:55N 26°05' W 080°11'0 0.0
2018-Feb-10 00:27N 26°05' W 080°11'0 0.0
2018-Feb-09 23:57N 26°05' W 080°11'0 0.0
2018-Feb-09 23:30N 26°05' W 080°11'0 0.0
2018-Feb-09 23:00N 26°05' W 080°11'0 0.0
2018-Feb-09 22:45N 26°05' W 080°11'  
Track history (hours):
 
Tides and Currents Weather Stations Pressure Air Temp Water Temp Dewpoint Dewpoint Depression Visibility Wind Speed Wind Dir Waves Ship Positions

EndleSS Venture

Last reported at 2018-Feb-18 21:51 UTC. Time now 2018-Feb-25 11:59 UTC.
Position N 26°15' W 080°05'.

Type: Pleasure craft. MMSI: 378112195.

Date/timePositionNaut miles runAvg speedWind from/ knotsBaromVisibWave heightAir tempDewpointWater temp
2018-Feb-18 21:51N 26°15' W 080°05'2 4.3
2018-Feb-18 21:29N 26°14' W 080°06'5 3.4
2018-Feb-18 19:57N 26°19' W 080°04'3 2.2
2018-Feb-18 18:37N 26°22' W 080°04'  
2018-Feb-15 22:24N 26°16' W 080°05'2 3.9
2018-Feb-15 21:55N 26°14' W 080°06'3 5.1
2018-Feb-15 21:22N 26°11' W 080°06'3 7.3
2018-Feb-15 20:59N 26°08' W 080°07'1 2.3
2018-Feb-15 20:29N 26°07' W 080°07'2 4.0
2018-Feb-15 19:59N 26°07' W 080°09'2 5.1
2018-Feb-15 19:30N 26°05' W 080°11'0 0.3
2018-Feb-15 18:55N 26°05' W 080°11'0 0.0
2018-Feb-15 18:30N 26°05' W 080°11'0 0.0
2018-Feb-15 17:48N 26°05' W 080°11'0 0.0
2018-Feb-15 17:30N 26°05' W 080°11'2 3.7
2018-Feb-15 16:57N 26°03' W 080°11'2 4.5
2018-Feb-15 16:30N 26°05' W 080°11'0 0.0
2018-Feb-15 15:58N 26°05' W 080°11'0 0.0
2018-Feb-15 15:30N 26°05' W 080°11'0 0.0
2018-Feb-15 14:59N 26°05' W 080°11'0 0.0
2018-Feb-15 14:28N 26°05' W 080°11'0 0.0
2018-Feb-15 13:59N 26°05' W 080°11'0 0.0
2018-Feb-15 13:25N 26°05' W 080°11'0 0.0
2018-Feb-15 12:56N 26°05' W 080°11'0 0.0
2018-Feb-15 12:30N 26°05' W 080°11'0 0.0
2018-Feb-15 11:52N 26°05' W 080°11'0 0.0
2018-Feb-15 11:30N 26°05' W 080°11'0 0.0
2018-Feb-15 10:55N 26°05' W 080°11'0 0.0
2018-Feb-15 10:30N 26°05' W 080°11'0 0.0
2018-Feb-15 09:56N 26°05' W 080°11'0 0.0
2018-Feb-15 09:27N 26°05' W 080°11'0 0.0
2018-Feb-15 08:50N 26°05' W 080°11'0 0.0
2018-Feb-15 08:28N 26°05' W 080°11'0 0.0
2018-Feb-15 07:55N 26°05' W 080°11'0 0.0
2018-Feb-15 07:28N 26°05' W 080°11'0 0.0
2018-Feb-15 06:59N 26°05' W 080°11'0 0.0
2018-Feb-15 06:29N 26°05' W 080°11'0 0.0
2018-Feb-15 05:59N 26°05' W 080°11'0 0.0
2018-Feb-15 05:28N 26°05' W 080°11'0 0.0
2018-Feb-15 04:48N 26°05' W 080°11'0 0.0
2018-Feb-15 04:30N 26°05' W 080°11'0 0.0
2018-Feb-15 03:56N 26°05' W 080°11'0 0.0
2018-Feb-15 03:24N 26°05' W 080°11'0 0.0
2018-Feb-15 02:55N 26°05' W 080°11'0 0.0
2018-Feb-15 02:29N 26°05' W 080°11'0 0.0
2018-Feb-15 01:50N 26°05' W 080°11'0 0.0
2018-Feb-15 01:25N 26°05' W 080°11'0 0.0
2018-Feb-15 01:00N 26°05' W 080°11'0 0.0
2018-Feb-15 00:19N 26°05' W 080°11'0 0.0
2018-Feb-14 23:59N 26°05' W 080°11'0 0.0
2018-Feb-14 23:26N 26°05' W 080°11'0 0.0
2018-Feb-14 22:49N 26°05' W 080°11'0 0.0
2018-Feb-14 22:16N 26°05' W 080°11'0 0.0
2018-Feb-14 21:57N 26°05' W 080°11'0 0.0
2018-Feb-14 21:29N 26°05' W 080°11'0 0.0
2018-Feb-14 20:57N 26°05' W 080°11'0 0.0
2018-Feb-14 20:28N 26°05' W 080°11'0 0.0
2018-Feb-14 19:55N 26°05' W 080°11'0 0.0
2018-Feb-14 19:24N 26°05' W 080°11'0 0.0
2018-Feb-14 19:00N 26°05' W 080°11'0 0.0
2018-Feb-14 16:27N 26°05' W 080°11'0 0.0
2018-Feb-14 15:46N 26°05' W 080°11'0 0.0
2018-Feb-14 15:25N 26°05' W 080°11'0 0.0
2018-Feb-14 15:00N 26°05' W 080°11'0 0.0
2018-Feb-14 14:28N 26°05' W 080°11'0 0.0
2018-Feb-14 13:58N 26°05' W 080°11'0 0.0
2018-Feb-14 13:24N 26°05' W 080°11'0 0.0
2018-Feb-14 12:58N 26°05' W 080°11'0 0.0
2018-Feb-14 12:28N 26°05' W 080°11'0 0.0
2018-Feb-14 11:54N 26°05' W 080°11'0 0.0
2018-Feb-14 11:28N 26°05' W 080°11'0 0.0
2018-Feb-14 10:54N 26°05' W 080°11'0 0.0
2018-Feb-14 10:30N 26°05' W 080°11'0 0.0
2018-Feb-14 09:53N 26°05' W 080°11'0 0.0
2018-Feb-14 09:26N 26°05' W 080°11'0 0.0
2018-Feb-14 08:56N 26°05' W 080°11'0 0.0
2018-Feb-14 08:30N 26°05' W 080°11'0 0.0
2018-Feb-14 08:00N 26°05' W 080°11'0 0.0
2018-Feb-14 07:30N 26°05' W 080°11'0 0.0
2018-Feb-14 07:00N 26°05' W 080°11'0 0.0
2018-Feb-14 06:26N 26°05' W 080°11'0 0.0
2018-Feb-14 05:56N 26°05' W 080°11'0 0.0
2018-Feb-14 05:30N 26°05' W 080°11'0 0.0
2018-Feb-14 04:58N 26°05' W 080°11'0 0.0
2018-Feb-14 04:18N 26°05' W 080°11'0 0.0
2018-Feb-14 03:59N 26°05' W 080°11'0 0.0
2018-Feb-14 03:27N 26°05' W 080°11'0 0.0
2018-Feb-14 03:00N 26°05' W 080°11'0 0.0
2018-Feb-14 02:30N 26°05' W 080°11'0 0.0
2018-Feb-14 01:48N 26°05' W 080°11'0 0.0
2018-Feb-14 01:23N 26°05' W 080°11'0 0.0
2018-Feb-14 00:58N 26°05' W 080°11'0 0.0
2018-Feb-14 00:28N 26°05' W 080°11'0 0.0
2018-Feb-14 00:00N 26°05' W 080°11'0 0.0
2018-Feb-13 23:26N 26°05' W 080°11'0 0.0
2018-Feb-13 22:59N 26°05' W 080°11'0 0.0
2018-Feb-13 22:29N 26°05' W 080°11'0 0.0
2018-Feb-13 21:58N 26°05' W 080°11'0 0.0
2018-Feb-13 21:28N 26°05' W 080°11'0 0.0
2018-Feb-13 20:58N 26°05' W 080°11'0 0.0
2018-Feb-13 20:19N 26°05' W 080°11'0 0.0
2018-Feb-13 19:57N 26°05' W 080°11'0 0.0
2018-Feb-13 19:26N 26°05' W 080°11'0 0.0
2018-Feb-13 19:00N 26°05' W 080°11'0 0.0
2018-Feb-13 18:30N 26°05' W 080°11'0 0.0
2018-Feb-13 17:52N 26°05' W 080°11'0 0.0
2018-Feb-13 17:28N 26°05' W 080°11'0 0.0
2018-Feb-13 16:57N 26°05' W 080°11'0 0.0
2018-Feb-13 16:30N 26°05' W 080°11'0 0.0
2018-Feb-13 15:56N 26°05' W 080°11'0 0.0
2018-Feb-13 15:29N 26°05' W 080°11'0 0.0
2018-Feb-13 15:00N 26°05' W 080°11'0 0.0
2018-Feb-13 14:25N 26°05' W 080°11'0 0.0
2018-Feb-13 13:53N 26°05' W 080°11'0 0.0
2018-Feb-13 13:27N 26°05' W 080°11'0 0.0
2018-Feb-13 13:00N 26°05' W 080°11'0 0.0
2018-Feb-13 12:29N 26°05' W 080°11'0 0.0
2018-Feb-13 11:54N 26°05' W 080°11'0 0.0
2018-Feb-13 11:19N 26°05' W 080°11'0 0.0
2018-Feb-13 10:52N 26°05' W 080°11'0 0.0
2018-Feb-13 10:23N 26°05' W 080°11'0 0.0
2018-Feb-13 09:59N 26°05' W 080°11'0 0.0
2018-Feb-13 09:26N 26°05' W 080°11'0 0.0
2018-Feb-13 08:53N 26°05' W 080°11'0 0.0
2018-Feb-13 08:11N 26°05' W 080°11'0 0.0
2018-Feb-13 07:56N 26°05' W 080°11'0 0.0
2018-Feb-13 07:30N 26°05' W 080°11'0 0.0
2018-Feb-13 07:00N 26°05' W 080°11'0 0.0
2018-Feb-13 06:30N 26°05' W 080°11'0 0.0
2018-Feb-13 06:00N 26°05' W 080°11'0 0.0
2018-Feb-13 05:30N 26°05' W 080°11'0 0.0
2018-Feb-13 04:49N 26°05' W 080°11'0 0.0
2018-Feb-13 04:29N 26°05' W 080°11'0 0.0
2018-Feb-13 03:52N 26°05' W 080°11'0 0.0
2018-Feb-13 03:28N 26°05' W 080°11'0 0.0
2018-Feb-13 03:00N 26°05' W 080°11'0 0.0
2018-Feb-13 02:30N 26°05' W 080°11'0 0.0
2018-Feb-13 02:00N 26°05' W 080°11'0 0.0
2018-Feb-13 01:29N 26°05' W 080°11'0 0.0
2018-Feb-13 00:54N 26°05' W 080°11'0 0.0
2018-Feb-13 00:25N 26°05' W 080°11'0 0.0
2018-Feb-12 23:59N 26°05' W 080°11'0 0.0
2018-Feb-12 23:20N 26°05' W 080°11'0 0.0
2018-Feb-12 22:55N 26°05' W 080°11'0 0.0
2018-Feb-12 22:25N 26°05' W 080°11'0 0.0
2018-Feb-12 22:00N 26°05' W 080°11'0 0.0
2018-Feb-12 21:30N 26°05' W 080°11'0 0.0
2018-Feb-12 20:59N 26°05' W 080°11'0 0.0
2018-Feb-12 20:26N 26°05' W 080°11'0 0.0
2018-Feb-12 19:59N 26°05' W 080°11'0 0.0
2018-Feb-12 19:26N 26°05' W 080°11'1 2.5
2018-Feb-12 18:56N 26°06' W 080°10'2 3.2
2018-Feb-12 18:23N 26°07' W 080°08'2 4.6
2018-Feb-12 18:00N 26°06' W 080°07'0 0.3
2018-Feb-12 17:30N 26°06' W 080°07'2 4.2
2018-Feb-12 16:58N 26°07' W 080°09'1 2.2
2018-Feb-12 16:30N 26°06' W 080°10'2 3.3
2018-Feb-12 15:54N 26°05' W 080°11'0 0.1
2018-Feb-12 15:30N 26°05' W 080°11'0 0.0
2018-Feb-12 15:00N 26°05' W 080°11'0 0.0
2018-Feb-12 14:30N 26°05' W 080°11'0 0.5
2018-Feb-12 13:59N 26°05' W 080°11'0 0.2
2018-Feb-12 13:25N 26°05' W 080°11'0 0.0
2018-Feb-12 12:55N 26°05' W 080°11'0 0.0
2018-Feb-12 12:25N 26°05' W 080°11'0 0.0
2018-Feb-12 12:00N 26°05' W 080°11'0 0.0
2018-Feb-12 11:25N 26°05' W 080°11'0 0.0
2018-Feb-12 10:59N 26°05' W 080°11'0 0.0
2018-Feb-12 10:28N 26°05' W 080°11'0 0.0
2018-Feb-12 09:50N 26°05' W 080°11'0 0.0
2018-Feb-12 09:20N 26°05' W 080°11'0 0.0
2018-Feb-12 08:50N 26°05' W 080°11'0 0.0
2018-Feb-12 08:20N 26°05' W 080°11'0 0.0
2018-Feb-12 07:53N 26°05' W 080°11'0 0.0
2018-Feb-12 07:19N 26°05' W 080°11'0 0.0
2018-Feb-12 06:49N 26°05' W 080°11'0 0.0
2018-Feb-12 06:22N 26°05' W 080°11'0 0.0
2018-Feb-12 05:52N 26°05' W 080°11'0 0.0
2018-Feb-12 05:30N 26°05' W 080°11'0 0.0
2018-Feb-12 04:59N 26°05' W 080°11'0 0.0
2018-Feb-12 04:24N 26°05' W 080°11'0 0.0
2018-Feb-12 03:59N 26°05' W 080°11'0 0.0
2018-Feb-12 03:25N 26°05' W 080°11'0 0.0
2018-Feb-12 02:58N 26°05' W 080°11'0 0.0
2018-Feb-12 02:28N 26°05' W 080°11'0 0.0
2018-Feb-12 01:58N 26°05' W 080°11'0 0.0
2018-Feb-12 01:30N 26°05' W 080°11'0 0.0
2018-Feb-12 00:58N 26°05' W 080°11'0 0.0
2018-Feb-12 00:28N 26°05' W 080°11'0 0.0
2018-Feb-11 23:58N 26°05' W 080°11'0 0.0
2018-Feb-11 23:28N 26°05' W 080°11'0 0.0
2018-Feb-11 22:57N 26°05' W 080°11'0 0.0
2018-Feb-11 22:11N 26°05' W 080°11'0 0.0
2018-Feb-11 21:56N 26°05' W 080°11'0 0.0
2018-Feb-11 21:31N 26°05' W 080°11'0 0.0
2018-Feb-11 20:54N 26°05' W 080°11'0 0.0
2018-Feb-11 20:24N 26°05' W 080°11'0 0.0
2018-Feb-11 19:57N 26°05' W 080°11'0 0.0
2018-Feb-11 19:14N 26°05' W 080°11'0 0.0
2018-Feb-11 18:54N 26°05' W 080°11'0 0.0
2018-Feb-11 18:24N 26°05' W 080°11'0 0.0
2018-Feb-11 17:59N 26°05' W 080°11'0 0.0
2018-Feb-11 17:31N 26°05' W 080°11'0 0.0
2018-Feb-11 16:58N 26°05' W 080°11'0 0.0
2018-Feb-11 16:29N 26°05' W 080°11'0 0.0
2018-Feb-11 15:59N 26°05' W 080°11'0 0.0
2018-Feb-11 15:29N 26°05' W 080°11'0 0.0
2018-Feb-11 14:53N 26°05' W 080°11'0 0.0
2018-Feb-11 14:16N 26°05' W 080°11'0 0.0
2018-Feb-11 14:00N 26°05' W 080°11'0 0.0
2018-Feb-11 13:29N 26°05' W 080°11'0 0.0
2018-Feb-11 13:01N 26°05' W 080°11'0 0.0
2018-Feb-11 12:25N 26°05' W 080°11'0 0.0
2018-Feb-11 11:59N 26°05' W 080°11'0 0.0
2018-Feb-11 11:28N 26°05' W 080°11'0 0.0
2018-Feb-11 10:59N 26°05' W 080°11'0 0.0
2018-Feb-11 10:25N 26°05' W 080°11'0 0.0
2018-Feb-11 10:00N 26°05' W 080°11'0 0.0
2018-Feb-11 09:30N 26°05' W 080°11'0 0.0
2018-Feb-11 09:00N 26°05' W 080°11'0 0.0
2018-Feb-11 08:30N 26°05' W 080°11'0 0.0
2018-Feb-11 07:51N 26°05' W 080°11'0 0.0
2018-Feb-11 07:26N 26°05' W 080°11'0 0.0
2018-Feb-11 06:56N 26°05' W 080°11'0 0.0
2018-Feb-11 06:26N 26°05' W 080°11'0 0.0
2018-Feb-11 05:56N 26°05' W 080°11'0 0.0
2018-Feb-11 05:30N 26°05' W 080°11'0 0.0
2018-Feb-11 04:59N 26°05' W 080°11'0 0.0
2018-Feb-11 04:28N 26°05' W 080°11'0 0.0
2018-Feb-11 03:58N 26°05' W 080°11'0 0.0
2018-Feb-11 03:30N 26°05' W 080°11'0 0.0
2018-Feb-11 02:59N 26°05' W 080°11'0 0.0
2018-Feb-11 02:24N 26°05' W 080°11'0 0.0
2018-Feb-11 01:51N 26°05' W 080°11'0 0.0
2018-Feb-11 01:17N 26°05' W 080°11'0 0.0
2018-Feb-11 01:00N 26°05' W 080°11'0 0.0
2018-Feb-11 00:27N 26°05' W 080°11'0 0.0
2018-Feb-10 23:56N 26°05' W 080°11'0 0.0
2018-Feb-10 23:22N 26°05' W 080°11'0 0.0
2018-Feb-10 22:51N 26°05' W 080°11'0 0.0
2018-Feb-10 22:21N 26°05' W 080°11'0 0.0
2018-Feb-10 22:00N 26°05' W 080°11'0 0.0
2018-Feb-10 21:30N 26°05' W 080°11'0 0.0
2018-Feb-10 20:59N 26°05' W 080°11'0 0.0
2018-Feb-10 20:29N 26°05' W 080°11'0 0.0
2018-Feb-10 19:58N 26°05' W 080°11'0 0.0
2018-Feb-10 19:29N 26°05' W 080°11'0 0.0
2018-Feb-10 18:58N 26°05' W 080°11'0 0.0
2018-Feb-10 18:29N 26°05' W 080°11'0 0.0
2018-Feb-10 17:56N 26°05' W 080°11'0 0.0
2018-Feb-10 17:29N 26°05' W 080°11'0 0.0
2018-Feb-10 16:59N 26°05' W 080°11'0 0.0
2018-Feb-10 16:26N 26°05' W 080°11'0 0.0
2018-Feb-10 15:59N 26°05' W 080°11'0 0.0
2018-Feb-10 15:25N 26°05' W 080°11'0 0.0
2018-Feb-10 14:52N 26°05' W 080°11'0 0.0
2018-Feb-10 14:30N 26°05' W 080°11'0 0.0
2018-Feb-10 13:59N 26°05' W 080°11'0 0.0
2018-Feb-10 13:29N 26°05' W 080°11'0 0.0
2018-Feb-10 12:59N 26°05' W 080°11'0 0.0
2018-Feb-10 12:29N 26°05' W 080°11'0 0.0
2018-Feb-10 11:58N 26°05' W 080°11'0 0.0
2018-Feb-10 11:30N 26°05' W 080°11'0 0.0
2018-Feb-10 11:00N 26°05' W 080°11'0 0.0
2018-Feb-10 10:30N 26°05' W 080°11'0 0.0
2018-Feb-10 09:52N 26°05' W 080°11'0 0.0
2018-Feb-10 09:25N 26°05' W 080°11'0 0.0
2018-Feb-10 08:58N 26°05' W 080°11'0 0.0
2018-Feb-10 08:28N 26°05' W 080°11'0 0.0
2018-Feb-10 07:55N 26°05' W 080°11'0 0.0
2018-Feb-10 07:30N 26°05' W 080°11'0 0.0
2018-Feb-10 06:36N 26°05' W 080°11'0 0.0
2018-Feb-10 06:21N 26°05' W 080°11'0 0.0
2018-Feb-10 05:54N 26°05' W 080°11'0 0.0
2018-Feb-10 05:30N 26°05' W 080°11'0 0.0
2018-Feb-10 04:59N 26°05' W 080°11'0 0.0
2018-Feb-10 04:30N 26°05' W 080°11'0 0.0
2018-Feb-10 03:53N 26°05' W 080°11'0 0.0
2018-Feb-10 03:30N 26°05' W 080°11'0 0.0
2018-Feb-10 02:58N 26°05' W 080°11'0 0.0
2018-Feb-10 02:28N 26°05' W 080°11'0 0.0
2018-Feb-10 01:50N 26°05' W 080°11'0 0.0
2018-Feb-10 01:17N 26°05' W 080°11'0 0.0
2018-Feb-10 00:55N 26°05' W 080°11'0 0.0
2018-Feb-10 00:27N 26°05' W 080°11'0 0.0
2018-Feb-09 23:57N 26°05' W 080°11'0 0.0
2018-Feb-09 23:30N 26°05' W 080°11'0 0.0
2018-Feb-09 23:00N 26°05' W 080°11'0 0.0
2018-Feb-09 22:45N 26°05' W 080°11'  

Dump ship's entire track history